Time;durP1;ratioP1;P1;durP2;ratioP2;P2;SDS_P1;SDS_P2;PMS_P1;PMS_P2;Temp;Humidity;BMP_temperature;BMP_pressure;BME280_temperature;BME280_humidity;BME280_pressure;Samples;Min_cycle;Max_cycle;Signal;HPM_P1;HPM_P2
2023/01/06 00:02:08;;;;;;;30.38;13.95;;;10.40;99.90;;;;;;5025741;28;20041;-62
2023/01/06 00:04:33;;;;;;;28.63;13.45;;;10.50;99.90;;;;;;5041380;28;20033;-63
2023/01/06 00:06:59;;;;;;;28.35;13.10;;;10.50;99.90;;;;;;5049601;28;20115;-64
2023/01/06 00:09:24;;;;;;;25.88;12.65;;;10.50;99.90;;;;;;5042770;28;20029;-62
2023/01/06 00:11:50;;;;;;;25.30;12.60;;;10.50;99.90;;;;;;5040407;28;20037;-63
2023/01/06 00:14:16;;;;;;;24.05;11.82;;;10.50;99.90;;;;;;5037015;28;20037;-63
2023/01/06 00:16:42;;;;;;;27.15;12.20;;;10.50;99.90;;;;;;5031407;28;20055;-63
2023/01/06 00:19:09;;;;;;;23.73;11.30;;;10.50;99.90;;;;;;5045748;28;20034;-63
2023/01/06 00:21:38;;;;;;;30.00;12.73;;;10.50;99.90;;;;;;5016742;28;20550;-64
2023/01/06 00:24:03;;;;;;;22.13;10.65;;;10.50;99.90;;;;;;5046537;28;20048;-63
2023/01/06 00:26:29;;;;;;;24.20;11.30;;;10.50;99.90;;;;;;5048960;28;20681;-64
2023/01/06 00:28:55;;;;;;;20.42;9.98;;;10.60;99.90;;;;;;5050984;28;20037;-62
2023/01/06 00:31:21;;;;;;;22.75;10.60;;;10.60;99.90;;;;;;5020235;28;20529;-64
2023/01/06 00:33:47;;;;;;;23.50;10.77;;;10.60;99.90;;;;;;5047908;28;20029;-62
2023/01/06 00:36:13;;;;;;;20.15;10.98;;;10.60;99.90;;;;;;5044410;28;20477;-63
2023/01/06 00:38:39;;;;;;;21.42;9.80;;;10.60;99.90;;;;;;5028967;28;20037;-62
2023/01/06 00:42:02;;;;;;;22.55;9.73;;;10.60;99.90;;;;;;5036157;28;20033;-62
2023/01/06 00:43:54;;;;;;;17.15;9.13;;;10.60;99.90;;;;;;5023504;28;20106;-64
2023/01/06 00:46:20;;;;;;;18.02;9.18;;;10.60;99.90;;;;;;5045234;28;20033;-64
2023/01/06 00:48:45;;;;;;;22.02;8.45;;;10.60;99.90;;;;;;5023757;28;20106;-63
2023/01/06 00:51:11;;;;;;;17.40;8.48;;;10.60;99.90;;;;;;5035570;28;20044;-63
2023/01/06 00:53:37;;;;;;;22.20;9.13;;;10.60;99.90;;;;;;5049090;28;20049;-62
2023/01/06 00:56:02;;;;;;;16.00;9.00;;;10.50;99.90;;;;;;5038159;28;20069;-62
2023/01/06 00:58:29;;;;;;;21.15;9.25;;;10.50;99.90;;;;;;5037819;28;20079;-66
2023/01/06 01:00:55;;;;;;;21.02;9.93;;;10.50;99.90;;;;;;5033371;28;20048;-63
2023/01/06 01:03:21;;;;;;;16.92;8.95;;;10.50;99.90;;;;;;5052964;28;20029;-65
2023/01/06 01:05:46;;;;;;;17.38;9.15;;;10.50;99.90;;;;;;5042797;28;20040;-64
2023/01/06 01:08:12;;;;;;;18.52;9.73;;;10.50;99.90;;;;;;5053660;28;20395;-63
2023/01/06 01:10:37;;;;;;;17.27;8.68;;;10.50;99.90;;;;;;5039019;28;20033;-63
2023/01/06 01:13:03;;;;;;;14.88;8.40;;;10.50;99.90;;;;;;5039952;28;20094;-63
2023/01/06 01:15:30;;;;;;;17.42;8.68;;;10.40;99.90;;;;;;5050285;28;20040;-63
2023/01/06 01:17:55;;;;;;;18.38;8.07;;;10.40;99.90;;;;;;5053353;28;20431;-63
2023/01/06 01:20:21;;;;;;;15.02;7.93;;;10.50;99.90;;;;;;5017337;28;20042;-63
2023/01/06 01:22:47;;;;;;;20.52;7.82;;;10.50;99.90;;;;;;5044581;28;20215;-65
2023/01/06 01:25:12;;;;;;;16.35;7.18;;;10.50;99.90;;;;;;5052385;28;20029;-63
2023/01/06 01:27:38;;;;;;;12.63;6.70;;;10.50;99.90;;;;;;5027905;28;20376;-63
2023/01/06 01:30:04;;;;;;;22.08;7.97;;;10.50;99.90;;;;;;5048520;28;20891;-63
2023/01/06 01:32:30;;;;;;;17.25;7.15;;;10.50;99.90;;;;;;5042022;28;20029;-63
2023/01/06 01:34:55;;;;;;;13.55;6.50;;;10.50;99.90;;;;;;5041903;28;20043;-63
2023/01/06 01:37:21;;;;;;;13.82;6.63;;;10.50;99.90;;;;;;5051808;28;20037;-64
2023/01/06 01:39:48;;;;;;;15.45;6.20;;;10.50;99.90;;;;;;5045574;28;20480;-63
2023/01/06 01:42:18;;;;;;;14.15;6.30;;;10.40;99.90;;;;;;5031046;28;20403;-64
2023/01/06 01:45:05;;;;;;;11.93;5.88;;;10.50;99.90;;;;;;5044365;28;20091;-63
2023/01/06 01:47:51;;;;;;;13.18;6.10;;;10.50;99.90;;;;;;5050560;28;20456;-63
2023/01/06 01:50:49;;;;;;;15.23;6.65;;;10.50;99.90;;;;;;5027139;28;20045;-63
2023/01/06 01:53:24;;;;;;;13.57;6.30;;;10.50;99.90;;;;;;5033282;28;20045;-63
2023/01/06 01:55:52;;;;;;;13.75;6.68;;;10.50;99.90;;;;;;5030927;28;20040;-63
2023/01/06 01:58:43;;;;;;;16.00;6.57;;;10.50;99.90;;;;;;5032993;28;20435;-62
2023/01/06 02:01:10;;;;;;;13.02;6.55;;;10.40;99.90;;;;;;5022947;28;20041;-63
2023/01/06 02:03:38;;;;;;;12.73;6.00;;;10.40;99.90;;;;;;5046214;28;20037;-64
2023/01/06 02:06:19;;;;;;;11.95;6.40;;;10.40;99.90;;;;;;5046000;28;20090;-64
2023/01/06 02:09:13;;;;;;;12.15;6.03;;;10.40;99.90;;;;;;5044514;28;20412;-63
2023/01/06 02:11:40;;;;;;;10.95;6.07;;;10.40;99.90;;;;;;5026197;28;20057;-63
2023/01/06 02:14:10;;;;;;;9.77;5.63;;;10.40;99.90;;;;;;5021282;28;20052;-63
2023/01/06 02:16:54;;;;;;;10.60;5.53;;;10.40;99.90;;;;;;5050977;28;20423;-63
2023/01/06 02:19:56;;;;;;;11.80;4.82;;;10.40;99.90;;;;;;5047204;28;20072;-63
2023/01/06 02:22:59;;;;;;;9.83;4.70;;;10.40;99.90;;;;;;5050539;28;20044;-63
2023/01/06 02:25:55;;;;;;;11.88;4.50;;;10.40;99.90;;;;;;5039922;28;20040;-62
2023/01/06 02:28:47;;;;;;;8.52;4.20;;;10.40;99.90;;;;;;5038746;28;20063;-63
2023/01/06 02:31:32;;;;;;;10.52;4.78;;;10.40;99.90;;;;;;5039333;28;20037;-62
2023/01/06 02:34:12;;;;;;;7.45;3.90;;;10.40;99.90;;;;;;5049948;28;20045;-63
2023/01/06 02:36:48;;;;;;;10.90;4.57;;;10.50;99.90;;;;;;5029980;28;20044;-63
2023/01/06 02:39:33;;;;;;;8.15;4.68;;;10.50;99.90;;;;;;5052126;28;20037;-63
2023/01/06 02:42:06;;;;;;;8.52;4.35;;;10.50;99.90;;;;;;5044584;28;20086;-66
2023/01/06 02:44:38;;;;;;;8.45;4.22;;;10.50;99.90;;;;;;5045190;28;20045;-62
2023/01/06 02:47:16;;;;;;;11.10;4.82;;;10.50;99.90;;;;;;5047267;28;20044;-64
2023/01/06 02:50:01;;;;;;;8.02;4.38;;;10.50;99.90;;;;;;5044054;28;20034;-63
2023/01/06 02:52:44;;;;;;;9.80;4.30;;;10.50;99.90;;;;;;5039624;28;20036;-62
2023/01/06 02:55:38;;;;;;;9.93;4.68;;;10.50;99.90;;;;;;5025137;28;20037;-64
2023/01/06 02:58:35;;;;;;;11.40;4.93;;;10.40;99.90;;;;;;5033278;28;20049;-63
2023/01/06 03:01:12;;;;;;;11.07;5.38;;;10.40;99.90;;;;;;5029003;28;20136;-62
2023/01/06 03:03:41;;;;;;;7.78;4.90;;;10.50;99.90;;;;;;5045561;28;20078;-63
2023/01/06 03:06:12;;;;;;;10.77;5.80;;;10.50;99.90;;;;;;5043013;28;20037;-63
2023/01/06 03:08:39;;;;;;;10.23;5.07;;;10.50;99.90;;;;;;5026445;28;20074;-63
2023/01/06 03:11:05;;;;;;;10.48;5.25;;;10.50;99.90;;;;;;5039657;28;20033;-63
2023/01/06 03:13:38;;;;;;;11.15;5.85;;;10.50;99.90;;;;;;5038249;28;20052;-63
2023/01/06 03:16:04;;;;;;;8.45;5.50;;;10.50;99.90;;;;;;5042390;28;20563;-65
2023/01/06 03:18:31;;;;;;;13.32;6.13;;;10.50;99.90;;;;;;5031828;28;20067;-63
2023/01/06 03:21:01;;;;;;;9.85;5.35;;;10.50;99.90;;;;;;5050198;28;20542;-62
2023/01/06 03:23:27;;;;;;;8.60;4.88;;;10.50;99.90;;;;;;5043096;28;20549;-63
2023/01/06 03:25:53;;;;;;;10.75;5.88;;;10.50;99.90;;;;;;5042417;28;20125;-62
2023/01/06 03:28:18;;;;;;;13.07;5.30;;;10.50;99.90;;;;;;5050951;28;20045;-65
2023/01/06 03:31:07;;;;;;;10.00;5.10;;;10.50;99.90;;;;;;5049708;28;20075;-62
2023/01/06 03:33:55;;;;;;;11.15;5.93;;;10.50;99.90;;;;;;5016898;28;20048;-62
2023/01/06 03:36:29;;;;;;;9.02;5.65;;;10.50;99.90;;;;;;5050334;28;20048;-63
2023/01/06 03:38:59;;;;;;;14.07;5.65;;;10.50;99.90;;;;;;5018849;28;20036;-62
2023/01/06 03:44:41;;;;;;;9.00;5.63;;;10.50;99.90;;;;;;5032101;28;20041;-65
2023/01/06 03:47:20;;;;;;;9.20;6.20;;;10.50;99.90;;;;;;5041773;28;20086;-63
2023/01/06 03:50:03;;;;;;;13.02;6.22;;;10.40;99.90;;;;;;5040119;28;20377;-62
2023/01/06 03:52:32;;;;;;;13.38;6.05;;;10.50;99.90;;;;;;5045905;28;20072;-62
2023/01/06 03:55:17;;;;;;;11.43;6.25;;;10.50;99.90;;;;;;5042288;28;20050;-63
2023/01/06 03:57:47;;;;;;;10.93;5.45;;;10.50;99.90;;;;;;5037635;28;20047;-65
2023/01/06 04:00:23;;;;;;;11.65;6.15;;;10.40;99.90;;;;;;5045421;28;20041;-64
2023/01/06 04:02:50;;;;;;;8.30;5.75;;;10.40;99.90;;;;;;5026585;28;20094;-62
2023/01/06 04:05:21;;;;;;;10.82;6.30;;;10.50;99.90;;;;;;5041128;28;20036;-63
2023/01/06 04:07:47;;;;;;;9.20;6.25;;;10.50;99.90;;;;;;5031729;28;20488;-63
2023/01/06 04:10:15;;;;;;;11.40;5.85;;;10.40;99.90;;;;;;5037583;28;20034;-62
2023/01/06 04:12:40;;;;;;;8.18;6.10;;;10.40;99.90;;;;;;5033551;28;20060;-63
2023/01/06 04:15:08;;;;;;;11.43;7.03;;;10.40;99.90;;;;;;5038730;28;20474;-63
2023/01/06 04:17:34;;;;;;;11.32;6.78;;;10.40;99.90;;;;;;5031586;28;20037;-65
2023/01/06 04:20:00;;;;;;;10.05;7.32;;;10.40;99.90;;;;;;5048679;28;20037;-65
2023/01/06 04:22:26;;;;;;;16.33;8.60;;;10.40;99.90;;;;;;5042835;28;20102;-65
2023/01/06 04:24:52;;;;;;;11.90;8.45;;;10.40;99.90;;;;;;5047864;28;20036;-66
2023/01/06 04:27:17;;;;;;;13.10;8.63;;;10.40;99.90;;;;;;5039028;28;20036;-63
2023/01/06 04:29:43;;;;;;;13.88;8.65;;;10.40;99.90;;;;;;5046479;28;20100;-62
2023/01/06 04:32:08;;;;;;;15.52;9.57;;;10.40;99.90;;;;;;5046358;28;20041;-63
2023/01/06 04:34:34;;;;;;;14.70;9.68;;;10.40;99.90;;;;;;5043779;28;20044;-65
2023/01/06 04:36:59;;;;;;;13.27;9.95;;;10.40;99.90;;;;;;5029086;28;20079;-63
2023/01/06 04:39:25;;;;;;;13.48;9.30;;;10.30;99.90;;;;;;5055342;28;20115;-62
2023/01/06 04:41:51;;;;;;;12.10;8.48;;;10.40;99.90;;;;;;5050935;28;20041;-63
2023/01/06 04:44:16;;;;;;;12.38;7.97;;;10.40;99.90;;;;;;5041071;28;20475;-63
2023/01/06 04:46:42;;;;;;;12.48;6.93;;;10.40;99.90;;;;;;5028221;28;20391;-63
2023/01/06 04:49:08;;;;;;;12.57;7.30;;;10.40;99.90;;;;;;5053779;28;20079;-63
2023/01/06 04:51:34;;;;;;;10.10;6.88;;;10.40;99.90;;;;;;5028798;28;20044;-63
2023/01/06 04:54:00;;;;;;;11.13;5.65;;;10.40;99.90;;;;;;5039809;28;20037;-63
2023/01/06 04:56:25;;;;;;;11.15;5.43;;;10.40;99.90;;;;;;5027180;28;20434;-62
2023/01/06 04:58:57;;;;;;;8.48;5.10;;;10.40;99.90;;;;;;5051576;28;20044;-63
2023/01/06 05:01:24;;;;;;;8.75;4.15;;;10.40;99.90;;;;;;5036257;28;20041;-65
2023/01/06 05:03:50;;;;;;;6.35;4.07;;;10.40;99.90;;;;;;5036313;28;20484;-62
2023/01/06 05:06:16;;;;;;;10.30;4.25;;;10.40;99.90;;;;;;5047359;28;20040;-62
2023/01/06 05:08:43;;;;;;;5.60;3.92;;;10.50;99.90;;;;;;5035263;28;20048;-62
2023/01/06 05:11:14;;;;;;;6.32;3.65;;;10.50;99.90;;;;;;5025003;28;20041;-63
2023/01/06 05:13:40;;;;;;;7.47;3.55;;;10.50;99.90;;;;;;5034395;28;20038;-62
2023/01/06 05:16:23;;;;;;;7.93;3.38;;;10.50;99.90;;;;;;5036954;28;20048;-62
2023/01/06 05:18:49;;;;;;;6.43;3.22;;;10.50;99.90;;;;;;5049537;28;20041;-62
2023/01/06 05:21:14;;;;;;;5.72;2.85;;;10.50;99.90;;;;;;5031251;28;20404;-62
2023/01/06 05:23:40;;;;;;;6.88;3.15;;;10.50;99.90;;;;;;5039260;28;20065;-62
2023/01/06 05:26:06;;;;;;;5.47;2.80;;;10.50;99.90;;;;;;5046876;28;20033;-63
2023/01/06 05:28:33;;;;;;;6.55;3.17;;;10.50;99.90;;;;;;5034996;28;20037;-61
2023/01/06 05:31:03;;;;;;;6.57;4.05;;;10.60;99.90;;;;;;5051662;28;20487;-62
2023/01/06 05:33:30;;;;;;;7.00;3.60;;;10.60;99.90;;;;;;5043695;28;20037;-61
2023/01/06 05:36:04;;;;;;;7.70;3.60;;;10.50;99.90;;;;;;5024740;28;20071;-63
2023/01/06 05:38:30;;;;;;;8.77;3.80;;;10.50;99.90;;;;;;5042326;28;20033;-64
2023/01/06 05:40:56;;;;;;;6.25;3.90;;;10.60;99.90;;;;;;5024350;28;20633;-62
2023/01/06 05:43:22;;;;;;;8.38;4.40;;;10.60;99.90;;;;;;5041004;28;20044;-62
2023/01/06 05:45:48;;;;;;;7.28;4.43;;;10.60;99.90;;;;;;5043872;28;20381;-62
2023/01/06 05:48:14;;;;;;;7.82;4.30;;;10.50;99.90;;;;;;5047525;28;20037;-62
2023/01/06 05:50:39;;;;;;;6.90;4.43;;;10.50;99.90;;;;;;5037160;28;20376;-62
2023/01/06 05:53:05;;;;;;;7.20;4.45;;;10.50;99.90;;;;;;5040627;28;20171;-62
2023/01/06 05:55:30;;;;;;;7.78;4.80;;;10.60;99.90;;;;;;5042379;28;20068;-63
2023/01/06 05:57:56;;;;;;;8.15;4.53;;;10.60;99.90;;;;;;5031175;28;20051;-62
2023/01/06 06:00:22;;;;;;;8.18;4.30;;;10.50;99.90;;;;;;5044611;28;20047;-62
2023/01/06 06:02:47;;;;;;;7.60;4.30;;;10.50;99.90;;;;;;5034358;28;20391;-62
2023/01/06 06:05:13;;;;;;;6.13;3.70;;;10.50;99.90;;;;;;5023440;28;20396;-63
2023/01/06 06:07:39;;;;;;;7.88;4.45;;;10.50;99.90;;;;;;5045000;28;20033;-64
2023/01/06 06:10:04;;;;;;;5.65;4.30;;;10.50;99.90;;;;;;5044091;28;20070;-62
2023/01/06 06:12:30;;;;;;;9.45;4.10;;;10.50;99.90;;;;;;5033320;28;20048;-62
2023/01/06 06:14:56;;;;;;;9.45;4.43;;;10.40;99.90;;;;;;5037210;28;20539;-62
2023/01/06 06:17:23;;;;;;;6.72;4.05;;;10.50;99.90;;;;;;5049694;28;20041;-62
2023/01/06 06:19:48;;;;;;;9.52;4.57;;;10.50;99.90;;;;;;5018694;28;20037;-62
2023/01/06 06:22:14;;;;;;;8.50;4.63;;;10.50;99.90;;;;;;5041240;28;20556;-62
2023/01/06 06:24:39;;;;;;;8.73;5.20;;;10.50;99.90;;;;;;5051083;28;20053;-63
2023/01/06 06:27:05;;;;;;;5.95;4.57;;;10.40;99.90;;;;;;5021616;28;20480;-63
2023/01/06 06:29:30;;;;;;;8.23;4.72;;;10.40;99.90;;;;;;5032661;28;20030;-62
2023/01/06 06:31:56;;;;;;;6.57;5.00;;;10.50;99.90;;;;;;5023030;28;20134;-62
2023/01/06 06:34:22;;;;;;;10.43;5.38;;;10.40;99.90;;;;;;5028494;28;20045;-63
2023/01/06 06:36:47;;;;;;;8.38;5.38;;;10.40;99.90;;;;;;5038774;28;20044;-62
2023/01/06 06:39:13;;;;;;;9.07;5.28;;;10.40;99.90;;;;;;5044474;28;20261;-62
2023/01/06 06:41:38;;;;;;;11.48;5.50;;;10.30;99.90;;;;;;5042426;28;20168;-62
2023/01/06 06:44:04;;;;;;;9.65;5.53;;;10.30;99.90;;;;;;5050371;28;20033;-62
2023/01/06 06:46:31;;;;;;;8.65;5.57;;;10.30;99.90;;;;;;5041593;28;20037;-63
2023/01/06 06:48:56;;;;;;;8.05;5.70;;;10.30;99.90;;;;;;5049079;28;20036;-63
2023/01/06 06:51:22;;;;;;;8.95;5.70;;;10.20;99.90;;;;;;5032531;28;20120;-63
2023/01/06 06:53:48;;;;;;;10.25;6.10;;;10.20;99.90;;;;;;5027071;28;20072;-64
2023/01/06 06:56:15;;;;;;;7.38;5.78;;;10.20;99.90;;;;;;5032156;28;20526;-63
2023/01/06 06:58:41;;;;;;;8.30;5.82;;;10.20;99.90;;;;;;5048350;28;20037;-62
2023/01/06 07:01:09;;;;;;;9.50;6.38;;;10.10;99.90;;;;;;5045084;28;20037;-62
2023/01/06 07:03:35;;;;;;;9.68;6.35;;;10.10;99.90;;;;;;5046940;28;20033;-62
2023/01/06 07:06:02;;;;;;;7.68;5.85;;;10.00;99.90;;;;;;5025896;28;20091;-62
2023/01/06 07:08:28;;;;;;;8.73;6.32;;;10.10;99.90;;;;;;5032803;28;20439;-62
2023/01/06 07:10:54;;;;;;;10.50;6.50;;;10.10;99.90;;;;;;5049326;28;20162;-62
2023/01/06 07:13:20;;;;;;;7.63;5.95;;;10.10;99.90;;;;;;5051225;28;20074;-62
2023/01/06 07:15:45;;;;;;;11.05;6.97;;;10.10;99.90;;;;;;5028419;28;20056;-61
2023/01/06 07:18:11;;;;;;;12.50;6.47;;;10.10;99.90;;;;;;5050391;28;20045;-63
2023/01/06 07:20:37;;;;;;;7.47;5.93;;;10.10;99.90;;;;;;5049099;28;20033;-64
2023/01/06 07:23:03;;;;;;;11.32;6.45;;;10.10;99.90;;;;;;5032765;28;20037;-64
2023/01/06 07:25:29;;;;;;;9.13;5.95;;;10.10;99.90;;;;;;5050082;28;20033;-63
2023/01/06 07:27:57;;;;;;;9.20;6.28;;;10.10;99.90;;;;;;5048408;28;20047;-63
2023/01/06 07:30:24;;;;;;;10.25;6.55;;;10.20;99.90;;;;;;5030119;28;20127;-62
2023/01/06 07:32:50;;;;;;;8.20;6.20;;;10.20;99.90;;;;;;5043002;28;20029;-62
2023/01/06 07:35:16;;;;;;;9.35;6.82;;;10.10;99.90;;;;;;5041902;28;20041;-63
2023/01/06 07:37:42;;;;;;;7.70;6.22;;;10.20;99.90;;;;;;5018746;28;20126;-61
2023/01/06 07:40:08;;;;;;;8.23;6.25;;;10.20;99.90;;;;;;5042853;28;20082;-63
2023/01/06 07:42:35;;;;;;;6.70;5.53;;;10.20;99.90;;;;;;5044808;28;20082;-61
2023/01/06 07:45:00;;;;;;;8.15;5.85;;;10.20;99.90;;;;;;5047485;28;20028;-61
2023/01/06 07:47:26;;;;;;;9.45;6.28;;;10.20;99.90;;;;;;5045555;28;20151;-62
2023/01/06 07:49:52;;;;;;;8.25;5.82;;;10.20;99.90;;;;;;5038955;28;20044;-64
2023/01/06 07:52:17;;;;;;;7.30;5.13;;;10.20;99.90;;;;;;5050564;28;20033;-63
2023/01/06 07:54:43;;;;;;;6.18;4.53;;;10.20;99.90;;;;;;5023806;28;20087;-62
2023/01/06 07:57:08;;;;;;;6.32;4.35;;;10.20;99.90;;;;;;5032038;28;20041;-61
2023/01/06 07:59:34;;;;;;;7.45;3.78;;;10.30;99.90;;;;;;5021844;28;20049;-63
2023/01/06 08:02:00;;;;;;;7.57;2.85;;;10.30;99.90;;;;;;5038795;28;20491;-61
2023/01/06 08:04:25;;;;;;;5.32;3.50;;;10.40;99.90;;;;;;5048268;28;20032;-62
2023/01/06 08:06:51;;;;;;;6.13;3.50;;;10.40;99.90;;;;;;5028795;28;20549;-62
2023/01/06 08:09:16;;;;;;;6.03;2.70;;;10.40;99.90;;;;;;5044561;28;20032;-62
2023/01/06 08:11:42;;;;;;;5.18;2.60;;;10.30;99.90;;;;;;5041166;28;20033;-65
2023/01/06 08:14:09;;;;;;;5.95;2.20;;;10.40;99.90;;;;;;5046115;28;20037;-61
2023/01/06 08:16:37;;;;;;;7.68;2.60;;;10.40;99.90;;;;;;5027482;28;20044;-62
2023/01/06 08:19:04;;;;;;;8.18;1.90;;;10.40;99.90;;;;;;5035299;28;20155;-63
2023/01/06 08:21:29;;;;;;;9.55;2.10;;;10.30;99.90;;;;;;5035009;28;20033;-62
2023/01/06 08:23:55;;;;;;;6.35;1.92;;;10.30;99.90;;;;;;5047051;28;20490;-63
2023/01/06 08:26:21;;;;;;;5.80;1.80;;;10.20;99.90;;;;;;5048732;28;20039;-62
2023/01/06 08:28:47;;;;;;;5.95;1.95;;;10.20;99.90;;;;;;5045655;28;20052;-65
2023/01/06 08:31:15;;;;;;;4.70;1.50;;;10.00;99.90;;;;;;5041390;28;20116;-61
2023/01/06 08:33:41;;;;;;;7.35;1.77;;;10.00;99.90;;;;;;5056029;28;20033;-64
2023/01/06 08:36:10;;;;;;;6.18;1.60;;;9.90;99.90;;;;;;5042253;28;20033;-63
2023/01/06 08:38:36;;;;;;;6.68;1.65;;;9.80;99.90;;;;;;5048205;28;20489;-62
2023/01/06 08:41:02;;;;;;;7.53;1.92;;;9.80;99.90;;;;;;5023989;28;20087;-62
2023/01/06 08:43:28;;;;;;;7.90;1.73;;;9.70;99.90;;;;;;5027086;28;20147;-62
2023/01/06 08:45:59;;;;;;;8.25;2.08;;;9.70;99.90;;;;;;5030370;28;20112;-62
2023/01/06 08:48:26;;;;;;;5.00;1.50;;;9.60;99.90;;;;;;5038999;28;20492;-62
2023/01/06 08:50:51;;;;;;;7.05;1.92;;;9.60;99.90;;;;;;5026848;28;20483;-63
2023/01/06 08:53:17;;;;;;;9.13;1.50;;;9.60;99.90;;;;;;5037190;28;20079;-61
2023/01/06 08:55:42;;;;;;;7.43;1.80;;;9.50;99.90;;;;;;5027128;28;20041;-62
2023/01/06 08:58:09;;;;;;;10.43;1.80;;;9.60;99.90;;;;;;5046235;28;20033;-63
2023/01/06 09:00:36;;;;;;;5.55;1.35;;;9.50;99.90;;;;;;5029615;28;20399;-63
2023/01/06 09:03:02;;;;;;;7.65;1.58;;;9.50;99.90;;;;;;5044195;28;20037;-62
2023/01/06 09:05:28;;;;;;;6.95;1.77;;;9.40;99.90;;;;;;5032481;28;20124;-62
2023/01/06 09:07:54;;;;;;;6.63;1.80;;;9.40;99.90;;;;;;5050126;28;20037;-64
2023/01/06 09:10:19;;;;;;;8.13;1.70;;;9.40;99.90;;;;;;5034831;28;20373;-61
2023/01/06 09:12:45;;;;;;;5.68;1.70;;;9.40;99.90;;;;;;5034194;28;20044;-63
2023/01/06 09:15:11;;;;;;;7.50;1.73;;;9.40;99.90;;;;;;5055597;28;20048;-62
2023/01/06 09:17:37;;;;;;;9.18;1.70;;;9.40;99.90;;;;;;5050467;28;20036;-62
2023/01/06 09:20:03;;;;;;;11.35;1.77;;;9.30;99.90;;;;;;5040063;28;20033;-63
2023/01/06 09:22:29;;;;;;;11.30;1.65;;;9.30;99.90;;;;;;5030226;28;20049;-62
2023/01/06 09:24:55;;;;;;;8.00;1.80;;;9.30;99.90;;;;;;5034062;28;20033;-62
2023/01/06 09:27:21;;;;;;;14.75;2.17;;;9.30;99.90;;;;;;5044235;28;20035;-63
2023/01/06 09:29:46;;;;;;;8.45;2.00;;;9.30;99.90;;;;;;5042001;28;20147;-63
2023/01/06 09:32:12;;;;;;;9.98;1.92;;;9.30;99.90;;;;;;5051340;28;20045;-63
2023/01/06 09:34:37;;;;;;;7.60;1.65;;;9.30;99.90;;;;;;5028007;28;20484;-63
2023/01/06 09:37:03;;;;;;;10.73;2.58;;;9.30;99.90;;;;;;5032309;28;20048;-62
2023/01/06 09:39:29;;;;;;;9.63;1.83;;;9.30;99.90;;;;;;5031564;28;20111;-62
2023/01/06 09:42:13;;;;;;;6.95;1.60;;;9.20;99.90;;;;;;5038555;28;20130;-64
2023/01/06 09:44:49;;;;;;;10.00;2.03;;;9.20;99.90;;;;;;5031824;28;20399;-62
2023/01/06 09:47:22;;;;;;;13.43;1.83;;;9.30;99.90;;;;;;5042284;28;20049;-64
2023/01/06 09:49:56;;;;;;;9.25;1.70;;;9.30;99.90;;;;;;5055464;28;20045;-62
2023/01/06 09:52:51;;;;;;;9.63;2.17;;;9.30;99.90;;;;;;5027051;28;20565;-62
2023/01/06 09:55:37;;;;;;;11.98;2.17;;;9.20;99.90;;;;;;5036341;28;20080;-63
2023/01/06 09:58:11;;;;;;;12.15;1.58;;;9.20;99.90;;;;;;5029250;28;20480;-62
2023/01/06 10:00:51;;;;;;;10.40;1.60;;;9.20;99.90;;;;;;5047457;28;20033;-62
2023/01/06 10:03:23;;;;;;;8.73;1.55;;;9.20;99.90;;;;;;5046743;28;20040;-61
2023/01/06 10:06:09;;;;;;;13.43;1.90;;;9.30;99.90;;;;;;5044690;28;20037;-62
2023/01/06 10:08:54;;;;;;;8.40;1.15;;;9.30;99.90;;;;;;5032973;28;20411;-62
2023/01/06 10:11:47;;;;;;;11.18;1.88;;;9.30;99.90;;;;;;5035931;28;20045;-62
2023/01/06 10:14:41;;;;;;;12.93;2.42;;;9.30;99.90;;;;;;5053535;28;20106;-62
2023/01/06 10:17:40;;;;;;;11.57;1.75;;;9.30;99.90;;;;;;5040812;28;20403;-61
2023/01/06 10:20:44;;;;;;;6.35;1.20;;;9.40;99.90;;;;;;5028938;28;20047;-64
2023/01/06 10:23:34;;;;;;;9.57;1.80;;;9.40;99.90;;;;;;5043523;28;20037;-62
2023/01/06 10:26:28;;;;;;;6.90;1.70;;;9.40;99.90;;;;;;5033866;28;20049;-64
2023/01/06 10:29:11;;;;;;;11.65;1.73;;;9.40;99.90;;;;;;5028846;28;20549;-65
2023/01/06 10:31:42;;;;;;;9.32;1.65;;;9.40;99.90;;;;;;5033518;28;20048;-64
2023/01/06 10:34:21;;;;;;;11.70;1.75;;;9.40;99.90;;;;;;5049114;28;20033;-62
2023/01/06 10:37:00;;;;;;;14.07;1.67;;;9.50;99.90;;;;;;5046717;28;20083;-61
2023/01/06 10:39:27;;;;;;;6.78;1.80;;;9.50;99.90;;;;;;5044483;28;20072;-61
2023/01/06 10:45:15;;;;;;;8.10;1.65;;;9.60;99.90;;;;;;5046163;28;20036;-64
2023/01/06 10:47:42;;;;;;;8.85;1.75;;;9.50;99.90;;;;;;5048160;28;20479;-62
2023/01/06 10:50:15;;;;;;;5.90;1.80;;;9.60;99.90;;;;;;5050155;28;20591;-62
2023/01/06 10:52:41;;;;;;;8.88;1.98;;;9.60;99.90;;;;;;5041209;28;20150;-64
2023/01/06 10:55:12;;;;;;;12.52;1.80;;;9.60;99.90;;;;;;5037581;28;20033;-63
2023/01/06 10:57:40;;;;;;;8.85;2.13;;;9.60;99.90;;;;;;5051886;28;20045;-63
2023/01/06 11:00:26;;;;;;;11.50;2.20;;;9.80;99.90;;;;;;5040962;28;20424;-62
2023/01/06 11:02:54;;;;;;;12.82;1.95;;;9.70;99.90;;;;;;5028747;28;20053;-62
2023/01/06 11:05:25;;;;;;;12.82;2.20;;;9.70;99.90;;;;;;5052070;28;20064;-62
2023/01/06 11:08:01;;;;;;;15.10;2.10;;;9.70;99.90;;;;;;5041512;28;20037;-63
2023/01/06 11:10:32;;;;;;;8.25;2.30;;;9.70;99.90;;;;;;5034154;28;20030;-65
2023/01/06 11:13:01;;;;;;;12.25;1.67;;;9.80;99.90;;;;;;5041684;28;20111;-62
2023/01/06 11:15:34;;;;;;;15.45;2.85;;;9.80;99.90;;;;;;5042379;28;20057;-62
2023/01/06 11:18:01;;;;;;;6.55;1.60;;;9.80;99.90;;;;;;5027703;28;20080;-61
2023/01/06 11:20:29;;;;;;;11.93;2.05;;;9.80;99.90;;;;;;5028216;28;20032;-62
2023/01/06 11:23:11;;;;;;;6.18;1.40;;;9.80;99.90;;;;;;5043634;28;20030;-61
2023/01/06 11:25:37;;;;;;;7.70;1.70;;;9.80;99.90;;;;;;5029314;28;20052;-61
2023/01/06 11:28:16;;;;;;;10.63;1.60;;;9.90;99.90;;;;;;5031069;28;20040;-63
2023/01/06 11:30:50;;;;;;;9.52;1.65;;;9.90;99.90;;;;;;5037893;28;20110;-63
2023/01/06 11:33:22;;;;;;;10.20;1.38;;;9.90;99.90;;;;;;5048697;28;20045;-64
2023/01/06 11:35:48;;;;;;;6.70;1.48;;;9.90;99.90;;;;;;5032512;28;20116;-63
2023/01/06 11:38:17;;;;;;;5.72;1.20;;;9.90;99.90;;;;;;5037577;28;20044;-62
2023/01/06 11:40:48;;;;;;;6.82;1.38;;;9.90;99.90;;;;;;5051123;28;20104;-63
2023/01/06 11:43:24;;;;;;;7.43;1.33;;;9.90;99.90;;;;;;5047922;28;20041;-64
2023/01/06 11:45:57;;;;;;;9.13;1.33;;;9.90;99.90;;;;;;5041302;28;20392;-64
2023/01/06 11:48:30;;;;;;;8.00;1.33;;;9.90;99.90;;;;;;5018759;28;20392;-63
2023/01/06 11:50:59;;;;;;;8.65;1.30;;;10.00;99.90;;;;;;5050939;28;20109;-63
2023/01/06 11:53:26;;;;;;;6.65;1.33;;;10.00;99.90;;;;;;5038131;28;20038;-63
2023/01/06 11:56:21;;;;;;;6.90;1.65;;;10.10;99.90;;;;;;5037604;28;20450;-64
2023/01/06 11:59:09;;;;;;;8.10;1.40;;;10.00;99.90;;;;;;5047875;28;20040;-64
2023/01/06 12:01:40;;;;;;;6.93;1.40;;;10.10;99.90;;;;;;5040944;28;20038;-62
2023/01/06 12:04:28;;;;;;;8.80;1.45;;;10.10;99.90;;;;;;5024210;28;20063;-64
2023/01/06 12:07:02;;;;;;;9.65;1.48;;;10.10;99.90;;;;;;5040932;28;20083;-63
2023/01/06 12:09:38;;;;;;;10.13;1.65;;;10.10;99.90;;;;;;5043709;28;20491;-63
2023/01/06 12:12:06;;;;;;;14.65;1.73;;;10.00;99.90;;;;;;5049610;28;20044;-64
2023/01/06 12:14:37;;;;;;;7.72;1.50;;;10.10;99.90;;;;;;5036356;28;20140;-62
2023/01/06 12:17:11;;;;;;;7.80;1.42;;;10.10;99.90;;;;;;5049038;28;20487;-61
2023/01/06 12:19:47;;;;;;;9.57;1.77;;;10.00;99.90;;;;;;5047267;28;20099;-62
2023/01/06 12:22:31;;;;;;;8.45;1.90;;;10.00;99.90;;;;;;5046741;28;20048;-64
2023/01/06 12:24:58;;;;;;;11.68;1.83;;;10.10;99.90;;;;;;5046789;28;20036;-64
2023/01/06 12:27:40;;;;;;;8.20;1.40;;;10.00;99.90;;;;;;5050361;28;20033;-64
2023/01/06 12:30:16;;;;;;;7.68;1.50;;;10.00;99.90;;;;;;5041820;28;20033;-63
2023/01/06 12:32:47;;;;;;;6.78;1.58;;;10.10;99.90;;;;;;5023275;28;20037;-63
2023/01/06 12:35:17;;;;;;;11.67;1.57;;;10.10;99.90;;;;;;5025202;28;20033;-62
2023/01/06 12:37:54;;;;;;;12.30;1.42;;;10.10;99.90;;;;;;5028536;28;20315;-63
2023/01/06 12:40:42;;;;;;;6.45;1.67;;;10.20;99.90;;;;;;5044184;28;20434;-63
2023/01/06 12:43:18;;;;;;;10.57;2.13;;;10.20;99.90;;;;;;5035990;28;20484;-62
2023/01/06 12:46:10;;;;;;;10.93;2.28;;;10.30;99.90;;;;;;5029468;28;20104;-63
2023/01/06 12:48:46;;;;;;;5.45;1.05;;;10.30;99.90;;;;;;5025870;28;20033;-63
2023/01/06 12:51:26;;;;;;;7.85;2.03;;;10.30;99.90;;;;;;5048433;28;20048;-62
2023/01/06 12:53:59;;;;;;;11.13;1.67;;;10.30;99.90;;;;;;5048270;28;20420;-63
2023/01/06 12:56:46;;;;;;;9.20;1.75;;;10.20;99.90;;;;;;5037911;28;20168;-63
2023/01/06 12:59:31;;;;;;;11.68;1.80;;;10.20;99.90;;;;;;5035471;28;20392;-63
2023/01/06 13:02:20;;;;;;;10.82;1.85;;;10.10;99.90;;;;;;5039580;28;20431;-63
2023/01/06 13:04:58;;;;;;;10.10;1.75;;;10.10;99.90;;;;;;5048826;28;20041;-63
2023/01/06 13:07:44;;;;;;;8.73;1.52;;;10.00;99.90;;;;;;5050217;28;20116;-62
2023/01/06 13:10:18;;;;;;;11.95;1.90;;;10.00;99.90;;;;;;5035756;28;20116;-63